TTPPTBPB

Guest
Details From TTPP - Trinidad/Piarco Intl
To TBPB - Barbados/Grantley Adams Intl
Flight Number -
Tags generated
Created
Modified
Stats Distance 202 nm / 373 km
Max Altitude 23,500 ft / 7,163 m
Waypoints 4
Social Downloads 25
Likes 0
Share VATSIM

Download

Looking for another format? Having issues loading an existing format? Contact us
Advertisement - Login to hide

Notes

Basic altitude profile: - Ascent Rate: 2500ft/min - Ascent Speed: 250kts - Cruise Altitude: 25000ft - Cruise Speed: 420kts - Descent Rate: 1500ft/min - Descent Speed: 250kts

Route

TTPP POS UR515 BGI TBPB

ID Type Via Altitude Latitude Longitude Leg Dist Tot Dist Heading (true) Name
O TTPP APT - 0 ft / 0 m 10.59537˚ -61.33724˚ - 0 nm - Trinidad/Piarco Intl
POS VOR - 3,000 ft / 914 m 10.46639˚ -61.39236˚ 8 nm 8 nm 203° / 203° PIARCO VOR-DME
BGI VOR UR515 (AWY-HI) 23,500 ft / 7,163 m 13.07506˚ -59.48383˚ 192 nm 201 nm 35° / 36° ADAMS VOR-DME
O TBPB APT - 0 ft / 0 m 13.07461˚ -59.49221˚ 0 nm 201 nm 267° / 267° Barbados/Grantley Adams Intl

Altitude Profile

Advertisement - Login to hide

Weather


0- 5 10 15 20 25 30 35+ Temperature / ° C

Clouds and Precipitation
Forecast for 2017-12-16 00:00 UTC. Updated 38 minutes ago

Ground ~20,000 ft ~40,000 ft Winds

TTPP

Details ICAO TTPP (POS)
Name Trinidad/Piarco Intl
Region Trinidad and Tobago
Timezone America/Port_of_Spain (UTC-4.0)
Stats Elevation 57 ft / 17 m (AMSL)
Location 10.595370° -61.337239°
Runways 1
Magnetic Variation 15.001° W

METAR

TTPP 151900Z 11016KT 9999 SCT018 30/20 Q1012 NOSIG

Decode

TAF

Not found

Departure Runways

ID Width Length Bearing (true) Bearing (mag) Surface Threshold Offset Overrun Length
10 151 ft / 46 m 10,486 ft / 3,196 m 89.83° 104.83° Asphalt 0 ft / 0 m 79 ft / 24 m
28 151 ft / 46 m 10,486 ft / 3,196 m 269.84° 284.84° Asphalt 0 ft / 0 m 184 ft / 56 m

TBPB

Details ICAO TBPB (BGI)
Name Barbados/Grantley Adams Intl
Region Barbados
Timezone America/Barbados (UTC-4.0)
Stats Elevation 168 ft / 51 m (AMSL)
Location 13.074614° -59.492206°
Runways 1
Magnetic Variation 15.612° W

METAR

TBPB 151900Z 09018KT 9999 FEW022 29/22 Q1013 NOSIG

Decode

TAF

Not found

Destination Runways

ID Width Length Bearing (true) Bearing (mag) Surface Threshold Offset Overrun Length
09 148 ft / 45 m 11,924 ft / 3,635 m 75.84° 91.45° Asphalt 0 ft / 0 m 174 ft / 53 m
27 148 ft / 45 m 11,924 ft / 3,635 m 255.85° 271.46° Asphalt 0 ft / 0 m 0 ft / 0 m

Approach Navaids

Runway Type Ident Frequency Range Bearing (true) Bearing (mag) Slope Elevation
09 Localiser IBGI 110.10 MHz 18 nm / 33 km 75.97° 91.59° - 168 ft / 51 m (AMSL)
09 Glidescope IBGI 110.10 MHz 10 nm / 19 km 75.85° 91.46° 3.00° 168 ft / 51 m (AMSL)

Popular Alternatives